Time;durP1;ratioP1;P1;durP2;ratioP2;P2;SDS_P1;SDS_P2;PMS_P1;PMS_P2;Temp;Humidity;BMP_temperature;BMP_pressure;BME280_temperature;BME280_humidity;BME280_pressure;Samples;Min_cycle;Max_cycle;Signal;HPM_P1;HPM_P2
2022/08/21 00:01:39;;;;;;;3.42;1.52;;;;;;;21.23;50.15;99925.94;5076319;28;20057;-86
2022/08/21 00:04:07;;;;;;;4.78;2.08;;;;;;;21.26;49.95;99933.66;5074376;28;20066;-85
2022/08/21 00:06:36;;;;;;;3.63;1.80;;;;;;;21.29;50.10;99928.00;5074614;28;20055;-87
2022/08/21 00:09:05;;;;;;;8.32;2.65;;;;;;;21.33;50.14;99921.34;5074107;28;20056;-86
2022/08/21 00:11:34;;;;;;;5.70;1.90;;;;;;;21.36;49.85;99914.84;5076002;28;20520;-86
2022/08/21 00:14:02;;;;;;;6.13;2.10;;;;;;;21.40;50.14;99912.69;5077524;28;20049;-87
2022/08/21 00:16:29;;;;;;;5.55;2.30;;;;;;;21.44;50.19;99916.75;5077527;28;20052;-87
2022/08/21 00:18:56;;;;;;;6.78;2.30;;;;;;;21.46;50.05;99915.59;5076430;28;20078;-87
2022/08/21 00:21:22;;;;;;;5.03;2.03;;;;;;;21.49;50.27;99906.41;5079448;28;20502;-87
2022/08/21 00:23:49;;;;;;;5.45;2.05;;;;;;;21.53;50.04;99912.31;5078689;28;20429;-87
2022/08/21 00:26:16;;;;;;;3.67;1.60;;;;;;;21.53;50.08;99913.13;5079661;28;20052;-87
2022/08/21 00:28:45;;;;;;;6.38;2.10;;;;;;;21.55;50.27;99905.78;5075149;28;20075;-85
2022/08/21 00:31:12;;;;;;;4.47;2.20;;;;;;;21.56;50.70;99907.47;5070462;28;20052;-85
2022/08/21 00:33:39;;;;;;;3.58;1.73;;;;;;;21.57;50.63;99902.97;5072455;28;20059;-86
2022/08/21 00:36:06;;;;;;;5.82;1.98;;;;;;;21.56;50.91;99907.47;5070772;28;20055;-85
2022/08/21 00:38:32;;;;;;;5.82;2.15;;;;;;;21.56;50.58;99903.94;5072749;28;20425;-86
2022/08/21 00:41:01;;;;;;;7.03;1.90;;;;;;;21.55;50.72;99904.94;5075034;28;20445;-85
2022/08/21 00:43:50;;;;;;;6.05;1.95;;;;;;;21.53;50.43;99896.25;5075776;28;20084;-85
2022/08/21 00:46:16;;;;;;;4.95;2.10;;;;;;;21.51;50.93;99898.22;5075038;28;20067;-86
2022/08/21 00:48:43;;;;;;;5.00;1.63;;;;;;;21.49;51.18;99903.72;5075325;28;20063;-85
2022/08/21 00:51:18;;;;;;;3.25;1.50;;;;;;;21.42;51.83;99903.50;5075054;28;20520;-85
2022/08/21 00:53:45;;;;;;;2.83;1.67;;;;;;;21.40;51.23;99900.16;5075137;28;20449;-87
2022/08/21 00:56:20;;;;;;;5.43;2.10;;;;;;;21.36;51.36;99898.78;5075062;28;20055;-85
2022/08/21 00:58:48;;;;;;;4.00;1.55;;;;;;;21.31;51.15;99901.91;5074537;28;20060;-86
2022/08/21 01:01:20;;;;;;;4.53;1.38;;;;;;;21.27;51.16;99897.03;5074654;28;20494;-87
2022/08/21 01:03:48;;;;;;;6.88;1.50;;;;;;;21.24;51.57;99898.19;5073837;28;20057;-86
2022/08/21 01:06:16;;;;;;;5.53;1.48;;;;;;;21.20;51.88;99892.28;5074868;28;20044;-86
2022/08/21 01:08:43;;;;;;;2.45;1.65;;;;;;;21.19;51.36;99890.59;5074786;28;20395;-86
2022/08/21 01:11:14;;;;;;;4.97;1.80;;;;;;;21.19;52.08;99895.97;5073583;28;20064;-87
2022/08/21 01:13:45;;;;;;;5.60;2.08;;;;;;;21.20;52.42;99891.47;5074592;28;20063;-87
2022/08/21 01:16:15;;;;;;;3.28;1.77;;;;;;;21.20;52.46;99892.28;5074984;28;20056;-87
2022/08/21 01:18:42;;;;;;;5.15;1.88;;;;;;;21.21;52.22;99896.66;5072884;28;20049;-84
2022/08/21 01:21:11;;;;;;;9.32;1.98;;;;;;;21.21;52.25;99899.34;5072924;28;20073;-85
2022/08/21 01:23:41;;;;;;;4.85;1.35;;;;;;;21.20;52.28;99886.94;5074534;28;20098;-85
2022/08/21 01:26:09;;;;;;;3.85;1.85;;;;;;;21.20;52.31;99888.78;5075055;28;20068;-85
2022/08/21 01:28:45;;;;;;;3.95;1.25;;;;;;;21.17;53.12;99892.59;5073777;28;20518;-85
2022/08/21 01:31:14;;;;;;;4.05;1.58;;;;;;;21.18;52.88;99894.28;5073146;28;20060;-85
2022/08/21 01:33:42;;;;;;;5.28;2.10;;;;;;;21.17;52.89;99897.09;5072381;28;20164;-84
2022/08/21 01:36:09;;;;;;;5.80;1.88;;;;;;;21.17;53.09;99894.44;5073960;28;20131;-85
2022/08/21 01:38:36;;;;;;;3.13;1.60;;;;;;;21.17;53.15;99895.28;5073706;28;20509;-85
2022/08/21 01:41:02;;;;;;;3.88;1.45;;;;;;;21.17;52.96;99900.63;5072935;28;20052;-85
2022/08/21 01:43:29;;;;;;;6.28;2.17;;;;;;;21.17;52.30;99894.44;5074065;28;20052;-84
2022/08/21 01:46:04;;;;;;;6.43;1.98;;;;;;;21.18;52.52;99898.78;5073834;28;20055;-84
2022/08/21 01:48:31;;;;;;;5.28;1.65;;;;;;;21.19;52.32;99895.09;5073879;28;20056;-86
2022/08/21 01:50:59;;;;;;;3.83;1.38;;;;;;;21.18;52.54;99894.28;5073372;28;20540;-85
2022/08/21 01:53:26;;;;;;;3.22;1.67;;;;;;;21.18;52.65;99899.63;5073721;28;20131;-85
2022/08/21 01:55:59;;;;;;;5.47;1.85;;;;;;;21.17;52.09;99894.44;5072766;28;20105;-85
2022/08/21 01:58:26;;;;;;;5.07;1.58;;;;;;;21.15;51.77;99894.59;5073682;28;20072;-85
2022/08/21 02:00:53;;;;;;;4.95;2.00;;;;;;;21.14;51.84;99892.91;5072483;28;20067;-85
2022/08/21 02:03:20;;;;;;;9.68;2.42;;;;;;;21.11;51.80;99890.53;5073489;28;20057;-85
2022/08/21 02:06:01;;;;;;;7.70;2.13;;;;;;;21.07;51.43;99890.00;5073316;28;20059;-85
2022/08/21 02:08:28;;;;;;;7.00;2.28;;;;;;;21.05;51.49;99891.97;5072166;28;20055;-86
2022/08/21 02:10:55;;;;;;;7.68;2.10;;;;;;;21.03;51.65;99888.63;5072219;28;20056;-86
2022/08/21 02:13:22;;;;;;;7.28;2.38;;;;;;;21.03;51.47;99887.78;5073200;28;20048;-86
2022/08/21 02:15:48;;;;;;;4.00;2.10;;;;;;;21.03;51.68;99885.09;5072987;28;20490;-85
2022/08/21 02:18:15;;;;;;;3.95;1.92;;;;;;;21.01;51.33;99882.56;5072599;28;20362;-86
2022/08/21 02:20:47;;;;;;;7.53;2.13;;;;;;;21.00;51.45;99888.09;5072988;28;20107;-87
2022/08/21 02:23:20;;;;;;;7.55;2.38;;;;;;;21.01;51.29;99890.59;5071467;28;20048;-87
2022/08/21 02:25:52;;;;;;;9.38;2.15;;;;;;;21.01;51.29;99887.91;5072731;28;20135;-87
2022/08/21 02:28:19;;;;;;;6.85;1.95;;;;;;;21.00;51.35;99885.44;5072742;28;20059;-85
2022/08/21 02:30:47;;;;;;;6.47;2.35;;;;;;;20.98;51.24;99890.06;5073357;28;20055;-85
2022/08/21 02:33:15;;;;;;;7.07;2.13;;;;;;;20.98;51.45;99890.06;5073089;28;20453;-85
2022/08/21 02:35:43;;;;;;;5.90;2.63;;;;;;;20.94;51.23;99890.38;5071739;28;20052;-85
2022/08/21 02:38:12;;;;;;;6.72;2.10;;;;;;;20.91;51.29;99881.81;5072335;28;20056;-85
2022/08/21 02:40:42;;;;;;;5.63;1.90;;;;;;;20.88;51.23;99880.28;5071546;28;20153;-85
2022/08/21 02:43:14;;;;;;;8.10;2.40;;;;;;;20.86;51.06;99876.88;5072871;28;20052;-85
2022/08/21 02:45:43;;;;;;;7.40;2.50;;;;;;;20.81;51.13;99881.84;5071023;28;20090;-85
2022/08/21 02:48:13;;;;;;;5.30;1.77;;;;;;;20.78;51.44;99880.31;5072225;28;20056;-85
2022/08/21 02:50:46;;;;;;;6.78;2.00;;;;;;;20.72;51.50;99877.41;5072480;28;20048;-85
2022/08/21 02:53:15;;;;;;;;;;;;;;;20.69;51.10;99876.72;5073157;28;20053;-85
2022/08/21 02:55:47;;;;;;;8.57;1.85;;;;;;;20.70;51.23;99875.72;5072058;28;19920;-85
2022/08/21 02:58:16;;;;;;;7.28;2.00;;;;;;;20.65;51.44;99875.34;5070954;28;20453;-84
2022/08/21 03:00:43;;;;;;;6.55;2.45;;;;;;;20.61;51.39;99871.28;5071967;28;20536;-84
2022/08/21 03:03:11;;;;;;;10.88;2.67;;;;;;;20.59;51.68;99865.22;5071405;28;20071;-85
2022/08/21 03:05:38;;;;;;;6.35;2.42;;;;;;;20.56;51.67;99861.03;5071606;28;20533;-85
2022/08/21 03:08:10;;;;;;;4.90;1.90;;;;;;;20.54;51.78;99860.34;5070522;28;20410;-84
2022/08/21 03:10:39;;;;;;;6.70;2.30;;;;;;;20.54;51.70;99859.50;5071187;28;20106;-84
2022/08/21 03:13:07;;;;;;;5.70;1.60;;;;;;;20.54;51.61;99854.16;5071634;28;20374;-84
2022/08/21 03:15:34;;;;;;;5.22;2.15;;;;;;;20.54;51.62;99854.16;5070547;28;20049;-84
2022/08/21 03:18:04;;;;;;;5.82;1.88;;;;;;;20.53;51.48;99861.31;5071487;28;20092;-84
2022/08/21 03:20:32;;;;;;;4.35;2.10;;;;;;;20.53;51.34;99858.66;5070712;28;20052;-84
2022/08/21 03:22:59;;;;;;;5.47;2.13;;;;;;;20.52;51.63;99856.97;5070047;28;20102;-84
2022/08/21 03:25:28;;;;;;;8.93;2.28;;;;;;;20.53;51.58;99863.19;5071016;28;20055;-85
2022/08/21 03:28:11;;;;;;;5.97;2.50;;;;;;;20.52;51.85;99858.81;5070844;28;20131;-84
2022/08/21 03:30:50;;;;;;;7.57;2.08;;;;;;;20.47;51.88;99853.91;5070513;28;20048;-84
2022/08/21 03:33:18;;;;;;;5.60;2.08;;;;;;;20.51;51.65;99857.13;5070886;28;20052;-84
2022/08/21 03:35:51;;;;;;;8.18;2.22;;;;;;;20.48;52.09;99857.44;5070743;28;20072;-84
2022/08/21 03:38:19;;;;;;;6.20;2.30;;;;;;;20.48;51.56;99857.44;5069275;28;20064;-84
2022/08/21 03:40:52;;;;;;;4.78;1.80;;;;;;;20.47;51.71;99869.09;5070424;28;20048;-84
2022/08/21 03:43:19;;;;;;;3.50;2.13;;;;;;;20.44;51.73;99852.38;5068999;28;20044;-85
2022/08/21 03:45:45;;;;;;;8.25;2.50;;;;;;;20.43;51.81;99864.06;5070428;28;20418;-85
2022/08/21 03:48:12;;;;;;;4.72;2.30;;;;;;;20.41;52.00;99857.19;5070504;28;20048;-85
2022/08/21 03:50:42;;;;;;;6.45;2.33;;;;;;;20.37;52.35;99856.63;5070137;28;20052;-85
2022/08/21 03:53:10;;;;;;;5.03;2.03;;;;;;;20.37;52.21;99858.50;5070036;28;20497;-86
2022/08/21 03:55:46;;;;;;;9.05;2.17;;;;;;;20.35;52.14;99866.66;5070199;28;20128;-86
2022/08/21 03:58:15;;;;;;;8.38;2.28;;;;;;;20.33;52.16;99868.63;5069284;28;20084;-85
2022/08/21 04:00:45;;;;;;;9.00;2.30;;;;;;;20.33;52.02;99865.94;5071232;28;20063;-85
2022/08/21 04:03:12;;;;;;;4.85;2.13;;;;;;;20.32;52.23;99869.63;5074105;28;20053;-85
2022/08/21 04:05:39;;;;;;;5.88;2.38;;;;;;;20.31;52.16;99865.25;5074439;28;20040;-85
2022/08/21 04:08:06;;;;;;;6.25;2.20;;;;;;;20.29;51.99;99877.91;5073235;28;20049;-85
2022/08/21 04:10:35;;;;;;;8.45;2.58;;;;;;;20.26;52.01;99868.38;5071797;28;20060;-85
2022/08/21 04:13:03;;;;;;;4.18;1.92;;;;;;;20.22;51.81;99872.31;5072624;28;20052;-86
2022/08/21 04:15:30;;;;;;;4.07;2.00;;;;;;;20.21;52.02;99875.13;5077891;28;20502;-85
2022/08/21 04:17:57;;;;;;;5.88;2.28;;;;;;;20.17;52.17;99871.94;5077949;28;20045;-85
2022/08/21 04:20:24;;;;;;;7.68;2.53;;;;;;;20.14;52.20;99872.22;5077666;28;20433;-85
2022/08/21 04:22:52;;;;;;;7.80;2.50;;;;;;;20.10;52.31;99881.50;5078168;28;20052;-85
2022/08/21 04:25:21;;;;;;;13.82;2.90;;;;;;;20.07;52.78;99879.16;5077584;28;20044;-85
2022/08/21 04:27:47;;;;;;;5.65;2.60;;;;;;;20.04;52.42;99885.63;5076794;28;20049;-86
2022/08/21 04:30:15;;;;;;;9.05;2.80;;;;;;;20.03;52.72;99886.59;5077082;28;20056;-86
2022/08/21 04:32:47;;;;;;;6.85;2.80;;;;;;;19.99;52.87;99885.22;5077928;28;20091;-84
2022/08/21 04:35:17;;;;;;;6.22;2.10;;;;;;;19.98;52.71;99878.16;5078364;28;20123;-86
2022/08/21 04:37:44;;;;;;;8.88;2.72;;;;;;;19.95;52.77;99886.50;5077573;28;20611;-85
2022/08/21 04:40:13;;;;;;;8.75;2.78;;;;;;;19.91;53.14;99881.44;5077819;28;20509;-86
2022/08/21 04:42:46;;;;;;;8.02;2.72;;;;;;;19.88;53.44;99895.06;5078253;28;20074;-87
2022/08/21 04:45:22;;;;;;;7.05;2.60;;;;;;;19.84;53.16;99885.66;5077860;28;20049;-86
2022/08/21 04:47:54;;;;;;;7.82;2.92;;;;;;;19.85;52.87;99887.34;5078446;28;20049;-87
2022/08/21 04:50:26;;;;;;;7.50;2.70;;;;;;;19.84;53.17;99888.31;5078480;28;20056;-87
2022/08/21 04:52:53;;;;;;;7.50;2.47;;;;;;;19.83;53.03;99891.13;5076515;28;20052;-87
2022/08/21 04:55:21;;;;;;;4.43;2.58;;;;;;;19.79;53.15;99890.59;5077826;28;20135;-85
2022/08/21 04:57:49;;;;;;;8.48;2.97;;;;;;;19.78;53.06;99887.06;5078609;28;20426;-85
2022/08/21 05:00:18;;;;;;;7.07;2.92;;;;;;;19.78;53.35;99891.59;5078112;28;20311;-87
2022/08/21 05:02:47;;;;;;;5.32;2.75;;;;;;;19.76;53.28;99885.53;5079229;28;20062;-85
2022/08/21 05:05:15;;;;;;;9.68;3.03;;;;;;;19.74;52.90;99885.69;5073689;28;20048;-87
2022/08/21 05:07:44;;;;;;;5.38;2.75;;;;;;;19.74;53.23;99885.69;5077560;28;20052;-87
2022/08/21 05:10:12;;;;;;;7.28;2.90;;;;;;;19.75;53.53;99891.88;5078668;28;20052;-85
2022/08/21 05:12:41;;;;;;;6.72;2.60;;;;;;;19.75;53.37;99897.22;5079823;28;20059;-85
2022/08/21 05:15:11;;;;;;;7.65;3.17;;;;;;;19.77;53.36;99900.56;5081392;28;20063;-87
2022/08/21 05:17:40;;;;;;;9.82;3.10;;;;;;;19.78;53.62;99894.25;5081016;28;20060;-86
2022/08/21 05:20:09;;;;;;;7.28;2.75;;;;;;;19.79;53.75;99898.59;5079328;28;20044;-86
2022/08/21 05:22:35;;;;;;;7.32;2.80;;;;;;;19.80;53.45;99897.63;5079135;28;20041;-87
2022/08/21 05:25:03;;;;;;;8.00;2.90;;;;;;;19.82;53.70;99897.47;5081363;28;20059;-86
2022/08/21 05:27:38;;;;;;;7.07;2.90;;;;;;;19.81;53.86;99901.97;5081908;28;20060;-87
2022/08/21 05:30:09;;;;;;;6.07;2.92;;;;;;;19.80;53.72;99894.94;5079896;28;20281;-87
2022/08/21 05:32:36;;;;;;;7.53;2.75;;;;;;;19.82;53.38;99893.00;5081091;28;20426;-86
2022/08/21 05:35:05;;;;;;;7.55;2.83;;;;;;;19.82;53.78;99898.34;5077273;28;20055;-86
2022/08/21 05:37:33;;;;;;;6.53;2.75;;;;;;;19.84;53.48;99901.69;5073742;28;20055;-85
2022/08/21 05:40:00;;;;;;;6.40;2.78;;;;;;;19.85;53.75;99899.88;5071475;28;20426;-86
2022/08/21 05:42:47;;;;;;;6.28;3.05;;;;;;;19.87;53.81;99900.56;5073486;28;20111;-85
2022/08/21 05:45:21;;;;;;;;;;;;;;;19.88;53.22;99902.22;5073752;28;20048;-85
2022/08/21 05:48:09;;;;;;;4.35;2.92;;;;;;;19.93;53.41;99900.81;5073408;28;19924;-85
2022/08/21 05:50:38;;;;;;;6.07;3.03;;;;;;;19.93;53.46;99895.47;5073254;28;20052;-85
2022/08/21 05:53:06;;;;;;;5.60;2.92;;;;;;;19.92;53.71;99900.94;5073467;28;20052;-85
2022/08/21 05:55:35;;;;;;;6.80;3.55;;;;;;;19.92;53.31;99907.16;5071783;28;20505;-85
2022/08/21 05:58:02;;;;;;;6.22;2.45;;;;;;;19.92;53.61;99904.47;5073125;28;20056;-86
2022/08/21 06:00:28;;;;;;;9.88;3.17;;;;;;;19.95;53.64;99898.00;5072946;28;20056;-86
2022/08/21 06:02:55;;;;;;;7.05;2.92;;;;;;;19.96;53.91;99897.00;5072942;28;20044;-86
2022/08/21 06:05:22;;;;;;;4.32;2.92;;;;;;;19.96;53.85;99891.66;5072748;28;20068;-85
2022/08/21 06:08:02;;;;;;;6.32;2.90;;;;;;;20.00;54.03;99900.28;5073011;28;20456;-85
2022/08/21 06:10:29;;;;;;;6.13;3.10;;;;;;;20.02;53.88;99898.28;5072107;28;20055;-86
2022/08/21 06:12:56;;;;;;;6.55;3.38;;;;;;;20.04;53.91;99894.47;5072872;28;20053;-85
2022/08/21 06:15:23;;;;;;;6.82;3.00;;;;;;;20.07;53.58;99896.00;5072874;28;20408;-85
2022/08/21 06:17:49;;;;;;;8.02;3.28;;;;;;;20.10;53.95;99906.41;5071866;28;20071;-84
2022/08/21 06:20:16;;;;;;;7.25;3.03;;;;;;;20.15;53.92;99906.00;5072604;28;20055;-85
2022/08/21 06:22:42;;;;;;;9.82;3.65;;;;;;;20.18;54.06;99906.53;5072619;28;20045;-84
2022/08/21 06:25:09;;;;;;;7.05;2.67;;;;;;;20.20;53.28;99903.72;5071681;28;20067;-85
2022/08/21 06:27:36;;;;;;;7.25;2.65;;;;;;;20.22;53.14;99907.06;5072882;28;20052;-85
2022/08/21 06:30:07;;;;;;;7.28;2.70;;;;;;;20.24;53.15;99897.09;5072449;28;20509;-84
2022/08/21 06:32:34;;;;;;;4.43;2.38;;;;;;;20.28;53.03;99898.47;5073847;28;20049;-85
2022/08/21 06:35:03;;;;;;;4.63;2.30;;;;;;;20.31;53.05;99903.50;5073052;28;20048;-85
2022/08/21 06:37:31;;;;;;;3.35;2.35;;;;;;;20.36;53.01;99894.22;5072486;28;20494;-85
2022/08/21 06:39:57;;;;;;;4.30;2.40;;;;;;;20.40;53.12;99892.91;5073037;28;20513;-85
2022/08/21 06:42:27;;;;;;;9.20;2.92;;;;;;;20.44;52.89;99903.19;5073239;28;20446;-85
2022/08/21 06:44:54;;;;;;;6.10;2.58;;;;;;;20.48;52.74;99909.06;5071859;28;20052;-85
2022/08/21 06:47:20;;;;;;;6.18;2.60;;;;;;;20.52;52.73;99904.28;5073478;28;20048;-85
2022/08/21 06:49:47;;;;;;;5.97;2.30;;;;;;;20.55;52.72;99902.13;5073072;28;20048;-86
2022/08/21 06:52:15;;;;;;;4.25;2.42;;;;;;;20.60;52.45;99900.84;5073009;28;20071;-85
2022/08/21 06:54:42;;;;;;;6.88;2.63;;;;;;;20.63;52.56;99897.88;5072605;28;20498;-85
2022/08/21 06:57:09;;;;;;;8.43;3.25;;;;;;;20.66;53.00;99892.22;5072532;28;20064;-85
2022/08/21 06:59:35;;;;;;;7.55;3.30;;;;;;;20.72;53.05;99898.81;5073186;28;20052;-86
2022/08/21 07:02:03;;;;;;;5.13;3.00;;;;;;;20.76;53.21;99897.50;5071848;28;20053;-85
2022/08/21 07:04:30;;;;;;;8.20;3.00;;;;;;;20.80;52.88;99890.88;5072387;28;20062;-85
2022/08/21 07:06:56;;;;;;;5.95;2.22;;;;;;;20.85;52.09;99899.28;5070331;28;20048;-85
2022/08/21 07:09:23;;;;;;;7.57;2.60;;;;;;;20.88;52.50;99893.66;5072276;28;20052;-85
2022/08/21 07:11:52;;;;;;;8.00;3.13;;;;;;;20.93;52.89;99895.91;5070239;28;20505;-85
2022/08/21 07:14:19;;;;;;;7.07;3.05;;;;;;;20.99;52.86;99894.44;5071967;28;20048;-84
2022/08/21 07:16:47;;;;;;;5.32;2.30;;;;;;;21.04;52.87;99889.47;5071643;28;20051;-85
2022/08/21 07:19:13;;;;;;;5.22;2.72;;;;;;;21.08;52.87;99893.50;5071151;28;20413;-85
2022/08/21 07:21:40;;;;;;;7.50;3.08;;;;;;;21.13;52.81;99888.56;5070689;28;20056;-85
2022/08/21 07:24:07;;;;;;;5.88;3.03;;;;;;;21.19;52.66;99897.78;5070652;28;20464;-85
2022/08/21 07:26:34;;;;;;;8.73;3.58;;;;;;;21.23;52.50;99893.81;5071118;28;20045;-85
2022/08/21 07:29:01;;;;;;;4.32;2.75;;;;;;;21.26;52.32;99884.66;5071277;28;20053;-86
2022/08/21 07:31:28;;;;;;;5.60;3.30;;;;;;;21.29;52.38;99892.34;5068714;28;20052;-85
2022/08/21 07:33:55;;;;;;;7.13;2.70;;;;;;;21.29;51.97;99895.88;5070792;28;20266;-85
2022/08/21 07:36:22;;;;;;;6.63;3.42;;;;;;;21.30;52.37;99897.56;5070231;28;20136;-86
2022/08/21 07:38:49;;;;;;;6.25;3.35;;;;;;;21.32;52.60;99892.06;5069168;28;20525;-85
2022/08/21 07:41:21;;;;;;;5.53;2.80;;;;;;;21.33;52.75;99888.38;5070680;28;20733;-85
2022/08/21 07:43:48;;;;;;;7.00;3.03;;;;;;;21.37;52.48;99887.06;5069172;28;20053;-85
2022/08/21 07:46:18;;;;;;;4.55;2.15;;;;;;;21.41;52.32;99885.75;5069469;28;20048;-85
2022/08/21 07:48:45;;;;;;;8.18;2.13;;;;;;;21.45;52.42;99887.13;5071889;28;20052;-86
2022/08/21 07:51:14;;;;;;;4.03;1.90;;;;;;;21.51;52.34;99890.19;5074759;28;20346;-86
2022/08/21 07:53:41;;;;;;;4.22;2.25;;;;;;;21.56;52.02;99890.56;5074784;28;20060;-85
2022/08/21 07:56:08;;;;;;;8.77;2.67;;;;;;;21.60;51.96;99887.41;5075123;28;20482;-85
2022/08/21 07:58:35;;;;;;;8.02;2.20;;;;;;;21.65;51.81;99884.28;5073293;28;20536;-85
2022/08/21 08:01:02;;;;;;;5.13;2.75;;;;;;;21.69;51.75;99877.63;5073290;28;20048;-85
2022/08/21 08:03:28;;;;;;;5.38;3.05;;;;;;;21.74;51.23;99886.03;5071241;28;20052;-86
2022/08/21 08:05:56;;;;;;;7.53;3.00;;;;;;;21.78;51.79;99886.56;5054057;28;20053;-86
2022/08/21 08:08:24;;;;;;;5.75;3.22;;;;;;;21.82;51.61;99885.25;5053931;28;20529;-85
2022/08/21 08:10:52;;;;;;;6.90;3.05;;;;;;;21.87;51.47;99893.66;5050743;28;20495;-85
2022/08/21 08:13:19;;;;;;;5.63;2.63;;;;;;;21.91;51.22;99882.63;5046319;28;20044;-86
2022/08/21 08:15:45;;;;;;;5.55;2.80;;;;;;;21.96;51.26;99888.34;5033754;28;20061;-86
2022/08/21 08:18:13;;;;;;;6.13;2.15;;;;;;;22.00;50.69;99887.03;5036451;28;20056;-86
2022/08/21 08:20:40;;;;;;;7.82;2.55;;;;;;;22.05;50.46;99878.50;5052770;28;20091;-85
2022/08/21 08:23:16;;;;;;;8.20;1.92;;;;;;;22.07;50.23;99876.50;5052906;28;20494;-84
2022/08/21 08:25:45;;;;;;;4.93;1.98;;;;;;;22.16;50.52;99886.25;5052866;28;20053;-85
2022/08/21 08:28:13;;;;;;;4.53;2.53;;;;;;;22.20;50.02;99882.25;5053488;28;20049;-86
2022/08/21 08:30:49;;;;;;;5.72;2.38;;;;;;;22.26;50.40;99875.41;5052446;28;20413;-86
2022/08/21 08:33:20;;;;;;;4.10;1.98;;;;;;;22.31;50.45;99874.94;5052451;28;20410;-86
2022/08/21 08:35:51;;;;;;;5.50;2.72;;;;;;;22.38;50.04;99873.28;5053911;28;20111;-86
2022/08/21 08:38:54;;;;;;;5.57;2.47;;;;;;;22.44;50.15;99872.63;5053129;28;20048;-86
2022/08/21 08:41:47;;;;;;;6.90;2.40;;;;;;;22.58;50.63;99870.38;5052137;28;20049;-85
2022/08/21 08:44:24;;;;;;;5.80;2.65;;;;;;;22.67;50.32;99866.69;5053658;28;20543;-86
2022/08/21 08:46:57;;;;;;;6.68;2.92;;;;;;;22.74;50.23;99870.41;5053022;28;20057;-87
2022/08/21 08:49:49;;;;;;;9.68;3.15;;;;;;;22.78;50.06;99877.13;5053079;28;20053;-86
2022/08/21 08:52:15;;;;;;;10.52;2.70;;;;;;;22.92;50.22;99869.44;5053413;28;20087;-86
2022/08/21 08:54:49;;;;;;;5.80;2.65;;;;;;;23.00;50.18;99877.50;5052181;28;20075;-87
2022/08/21 08:57:18;;;;;;;7.90;3.10;;;;;;;23.12;49.69;99871.78;5052248;28;20045;-86
2022/08/21 08:59:52;;;;;;;7.68;2.58;;;;;;;23.21;49.33;99873.44;5050971;28;20521;-85
2022/08/21 09:02:20;;;;;;;4.90;2.45;;;;;;;23.30;49.43;99872.44;5052137;28;20548;-85
2022/08/21 09:04:48;;;;;;;7.22;2.88;;;;;;;23.40;49.58;99876.84;5053776;28;20060;-86
2022/08/21 09:07:39;;;;;;;6.97;2.97;;;;;;;23.46;49.02;99875.31;5052977;28;20041;-86
2022/08/21 09:10:18;;;;;;;4.95;2.55;;;;;;;23.59;48.38;99864.91;5051434;28;20067;-85
2022/08/21 09:13:05;;;;;;;5.22;2.70;;;;;;;23.69;47.26;99867.41;5052845;28;20053;-87
2022/08/21 09:15:53;;;;;;;5.90;2.75;;;;;;;23.81;47.59;99867.91;5053345;28;20490;-86
2022/08/21 09:18:22;;;;;;;6.50;2.80;;;;;;;23.93;46.93;99858.44;5052573;28;20521;-86
2022/08/21 09:21:17;;;;;;;5.55;2.40;;;;;;;23.99;47.03;99858.78;5052296;28;20057;-86
2022/08/21 09:23:50;;;;;;;7.63;2.60;;;;;;;24.07;46.58;99859.56;5052546;28;20052;-86
2022/08/21 09:26:20;;;;;;;8.68;2.97;;;;;;;24.12;46.74;99861.78;5053245;28;20056;-86
2022/08/21 09:29:00;;;;;;;5.95;2.45;;;;;;;24.14;46.73;99862.44;5051281;28;20053;-85
2022/08/21 09:31:38;;;;;;;5.13;2.42;;;;;;;24.20;47.01;99851.00;5052569;28;20494;-86
2022/08/21 09:34:09;;;;;;;5.30;2.75;;;;;;;24.32;46.78;99850.59;5052428;28;20064;-86
2022/08/21 09:36:50;;;;;;;7.53;2.92;;;;;;;24.40;47.11;99853.22;5052616;28;20426;-86
2022/08/21 09:39:30;;;;;;;6.40;3.13;;;;;;;24.55;47.34;99849.78;5051973;28;20057;-85
2022/08/21 09:41:58;;;;;;;7.60;2.90;;;;;;;24.72;47.35;99845.16;5051052;28;20056;-85
2022/08/21 09:44:33;;;;;;;6.72;3.08;;;;;;;24.81;46.67;99852.16;5051060;28;20418;-86
2022/08/21 09:47:00;;;;;;;12.00;3.85;;;;;;;24.93;46.12;99843.69;5052318;28;20052;-86
2022/08/21 09:49:29;;;;;;;7.25;3.70;;;;;;;25.01;45.66;99846.34;5050641;28;20052;-86
2022/08/21 09:51:57;;;;;;;6.63;3.25;;;;;;;25.07;46.18;99832.13;5052237;28;20052;-85
2022/08/21 09:54:32;;;;;;;8.18;4.03;;;;;;;25.18;46.42;99840.78;5052191;28;20067;-85
2022/08/21 10:00:24;;;;;;;9.30;3.80;;;;;;;25.38;44.82;99833.88;5051787;28;20049;-88
2022/08/21 10:02:50;;;;;;;;;;;;;;;25.47;46.18;99833.78;5052610;28;20049;-85
2022/08/21 10:05:22;;;;;;;6.72;3.60;;;;;;;25.56;45.95;99819.25;5051988;28;19983;-86
2022/08/21 10:07:49;;;;;;;8.23;3.50;;;;;;;25.62;46.32;99831.16;5051970;28;20056;-85
2022/08/21 10:10:29;;;;;;;7.90;4.38;;;;;;;25.66;44.74;99831.59;5050566;28;20053;-86
2022/08/21 10:13:16;;;;;;;7.55;3.67;;;;;;;25.76;44.84;99824.09;5050517;28;20057;-87
2022/08/21 10:16:01;;;;;;;7.38;3.85;;;;;;;25.86;44.52;99821.94;5051415;28;20053;-87
2022/08/21 10:18:41;;;;;;;4.70;3.05;;;;;;;26.00;43.99;99817.56;5050245;28;20637;-87
2022/08/21 10:21:07;;;;;;;9.98;3.40;;;;;;;26.11;44.42;99827.03;5051609;28;20429;-86
2022/08/21 10:24:12;;;;;;;8.20;3.17;;;;;;;26.14;44.44;99829.38;5052106;28;20049;-86
2022/08/21 10:27:22;;;;;;;8.32;2.83;;;;;;;26.24;44.14;99826.34;4981688;28;20468;-87
2022/08/21 10:30:06;;;;;;;8.57;2.70;;;;;;;26.31;43.46;99831.03;5059472;28;20059;-86
2022/08/21 10:32:59;;;;;;;9.75;3.30;;;;;;;26.38;41.72;99815.75;5059086;28;20059;-87
2022/08/21 10:35:33;;;;;;;8.00;2.45;;;;;;;26.46;42.32;99815.63;5028871;28;20407;-87
2022/08/21 10:38:31;;;;;;;6.63;2.35;;;;;;;26.48;43.25;99828.94;5058131;28;20041;-87
2022/08/21 10:41:18;;;;;;;5.30;2.25;;;;;;;26.54;42.09;99823.59;5053406;28;20060;-85
2022/08/21 10:43:57;;;;;;;5.57;2.00;;;;;;;26.46;41.86;99821.03;5053177;28;20490;-85
2022/08/21 10:46:45;;;;;;;5.25;2.38;;;;;;;26.45;41.06;99816.66;5052929;28;20049;-85
2022/08/21 10:49:33;;;;;;;6.38;1.98;;;;;;;26.40;41.35;99811.81;5052861;28;20525;-86
2022/08/21 10:52:33;;;;;;;5.13;1.90;;;;;;;26.49;42.45;99807.16;5053152;28;20052;-87
2022/08/21 10:55:44;;;;;;;4.82;2.20;;;;;;;26.64;42.02;99817.91;5052881;28;20422;-86
2022/08/21 10:58:18;;;;;;;4.75;1.90;;;;;;;26.89;41.26;99813.97;5024371;28;20049;-85
2022/08/21 11:00:53;;;;;;;5.13;1.75;;;;;;;27.15;41.85;99808.00;5051072;28;20083;-86
2022/08/21 11:03:40;;;;;;;5.75;2.08;;;;;;;27.50;41.33;99800.97;5050222;28;20056;-85
2022/08/21 11:06:31;;;;;;;4.38;1.80;;;;;;;28.01;41.88;99805.22;5049588;28;20048;-86
2022/08/21 11:09:09;;;;;;;4.47;2.10;;;;;;;28.63;40.75;99807.06;5050835;28;20053;-86
2022/08/21 11:11:57;;;;;;;5.32;2.10;;;;;;;29.30;41.23;99806.28;5053048;28;20128;-85
2022/08/21 11:15:11;;;;;;;14.35;2.20;;;;;;;30.00;39.17;99806.75;5053522;28;20510;-84
2022/08/21 11:18:10;;;;;;;5.03;1.65;;;;;;;30.52;37.05;99806.75;5053491;28;20056;-86
2022/08/21 11:20:58;;;;;;;4.45;1.33;;;;;;;30.88;39.32;99806.31;5053074;28;20057;-87
2022/08/21 11:23:36;;;;;;;6.03;1.67;;;;;;;31.30;36.96;99803.00;5052261;28;20064;-85
2022/08/21 11:26:13;;;;;;;3.30;1.60;;;;;;;31.73;36.46;99814.94;5053173;28;20048;-85
2022/08/21 11:28:54;;;;;;;4.70;1.48;;;;;;;32.22;35.90;99819.63;5051944;28;20053;-86
2022/08/21 11:31:55;;;;;;;3.05;1.10;;;;;;;32.68;34.66;99817.31;5053367;28;20053;-85
2022/08/21 11:35:00;;;;;;;2.13;0.90;;;;;;;33.12;31.64;99808.03;4988689;28;20066;-85
2022/08/21 11:37:48;;;;;;;5.13;1.35;;;;;;;33.50;34.59;99808.63;5050810;28;20395;-84
2022/08/21 11:40:15;;;;;;;2.72;1.10;;;;;;;33.86;33.58;99825.78;5052124;28;20048;-83
2022/08/21 11:43:06;;;;;;;2.35;1.08;;;;;;;34.12;32.39;99818.13;5052727;28;20049;-83
2022/08/21 11:45:44;;;;;;;3.15;0.90;;;;;;;34.47;31.84;99818.22;5053015;28;20060;-83
2022/08/21 11:48:13;;;;;;;2.25;1.02;;;;;;;34.79;30.88;99817.72;5052773;28;20487;-83
2022/08/21 11:50:43;;;;;;;2.72;1.10;;;;;;;35.06;31.28;99819.78;5052442;28;20057;-83
2022/08/21 11:53:20;;;;;;;2.22;1.08;;;;;;;35.28;29.11;99822.59;5052606;28;20507;-84
2022/08/21 11:55:56;;;;;;;2.33;1.08;;;;;;;35.54;29.64;99816.69;5052449;28;20060;-84
2022/08/21 11:58:34;;;;;;;1.92;0.95;;;;;;;35.80;30.45;99820.59;5052729;28;20407;-83
2022/08/21 12:01:08;;;;;;;2.50;1.13;;;;;;;36.10;28.81;99824.78;5039687;28;20518;-83